createdAt,value
2023-06-24T00:00:54.691Z,19.01
2023-06-24T00:03:22.761Z,18.91
2023-06-24T00:05:51.667Z,18.89
2023-06-24T00:08:25.674Z,18.83
2023-06-24T00:10:53.667Z,18.80
2023-06-24T00:13:21.650Z,18.80
2023-06-24T00:15:49.603Z,18.91
2023-06-24T00:18:17.530Z,19.03
2023-06-24T00:20:45.680Z,19.14
2023-06-24T00:23:19.477Z,19.05
2023-06-24T00:25:47.433Z,19.03
2023-06-24T00:28:15.452Z,18.94
2023-06-24T00:30:43.406Z,18.86
2023-06-24T00:33:14.149Z,18.92
2023-06-24T00:35:43.010Z,18.86
2023-06-24T00:38:11.479Z,18.76
2023-06-24T00:40:40.827Z,18.67
2023-06-24T00:43:10.077Z,18.52
2023-06-24T00:45:38.080Z,18.44
2023-06-24T00:48:06.437Z,18.29
2023-06-24T00:50:34.460Z,18.22
2023-06-24T00:53:02.402Z,18.32
2023-06-24T00:55:31.516Z,18.26
2023-06-24T00:58:01.783Z,18.27
2023-06-24T01:00:29.795Z,18.37
2023-06-24T01:03:00.031Z,18.27
2023-06-24T01:05:32.383Z,18.19
2023-06-24T01:08:01.237Z,18.22
2023-06-24T01:10:29.319Z,18.11
2023-06-24T01:12:57.272Z,18.04
2023-06-24T01:15:25.680Z,17.97
2023-06-24T01:18:01.726Z,17.85
2023-06-24T01:21:03.857Z,18.14
2023-06-24T01:23:53.018Z,18.51
2023-06-24T01:26:38.951Z,18.42
2023-06-24T01:29:36.035Z,18.27
2023-06-24T01:32:32.796Z,18.02
2023-06-24T01:35:08.589Z,17.82
2023-06-24T01:37:57.401Z,17.65
2023-06-24T01:40:30.478Z,17.43
2023-06-24T01:43:04.888Z,17.29
2023-06-24T01:45:39.073Z,17.16
2023-06-24T01:48:14.528Z,17.05
2023-06-24T01:50:46.310Z,16.95
2023-06-24T01:53:16.636Z,16.80
2023-06-24T01:55:46.104Z,16.69
2023-06-24T01:58:16.175Z,16.62
2023-06-24T02:00:44.557Z,16.58
2023-06-24T02:03:13.360Z,16.53
2023-06-24T02:05:43.376Z,16.46
2023-06-24T02:08:16.352Z,16.50
2023-06-24T02:10:45.072Z,16.52
2023-06-24T02:13:14.782Z,16.48
2023-06-24T02:15:43.530Z,16.44
2023-06-24T02:18:13.268Z,16.40
2023-06-24T02:20:42.778Z,16.41
2023-06-24T02:23:11.835Z,16.56
2023-06-24T02:25:42.443Z,16.50
2023-06-24T02:28:11.432Z,16.50
2023-06-24T02:30:41.293Z,16.48
2023-06-24T02:33:09.377Z,16.44
2023-06-24T02:35:37.581Z,16.43
2023-06-24T02:38:06.019Z,16.38
2023-06-24T02:40:35.077Z,16.33
2023-06-24T02:43:03.089Z,16.30
2023-06-24T02:45:31.396Z,16.27
2023-06-24T02:48:00.400Z,16.45
2023-06-24T02:50:29.638Z,16.45
2023-06-24T02:52:59.593Z,16.66
2023-06-24T02:55:29.177Z,16.55
2023-06-24T02:57:58.800Z,16.44
2023-06-24T03:00:27.260Z,16.32
2023-06-24T03:02:56.617Z,16.22
2023-06-24T03:05:27.888Z,16.15
2023-06-24T03:07:55.868Z,16.06
2023-06-24T03:10:26.777Z,15.99
2023-06-24T03:12:55.887Z,15.93
2023-06-24T03:15:25.300Z,15.86
2023-06-24T03:17:54.927Z,15.83
2023-06-24T03:20:23.630Z,15.81
2023-06-24T03:22:51.636Z,15.80
2023-06-24T03:25:19.644Z,15.79
2023-06-24T03:27:47.529Z,15.79
2023-06-24T03:30:17.464Z,15.77
2023-06-24T03:32:49.358Z,15.77
2023-06-24T03:35:18.274Z,15.76
2023-06-24T03:37:47.172Z,15.77
2023-06-24T03:40:15.339Z,15.79
2023-06-24T03:42:43.593Z,15.74
2023-06-24T03:45:11.915Z,15.70
2023-06-24T03:47:41.130Z,15.69
2023-06-24T03:50:09.528Z,15.68
2023-06-24T03:52:37.451Z,15.69
2023-06-24T03:55:06.819Z,15.69
2023-06-24T03:57:34.737Z,15.71
2023-06-24T04:00:02.652Z,15.71
2023-06-24T04:02:31.854Z,15.71
2023-06-24T04:05:00.616Z,15.72
2023-06-24T04:07:31.320Z,15.72
2023-06-24T04:09:59.541Z,15.72
2023-06-24T04:12:27.519Z,15.71
2023-06-24T04:14:55.503Z,15.72
2023-06-24T04:17:23.648Z,15.73
2023-06-24T04:19:51.855Z,15.74
2023-06-24T04:22:19.831Z,15.75
2023-06-24T04:24:47.750Z,15.75
2023-06-24T04:27:15.638Z,15.74
2023-06-24T04:29:43.614Z,15.72
2023-06-24T04:32:11.550Z,15.71
2023-06-24T04:34:39.517Z,15.72
2023-06-24T04:37:07.517Z,15.71
2023-06-24T04:39:35.486Z,15.70
2023-06-24T04:42:03.405Z,15.71
2023-06-24T04:44:31.288Z,16.13
2023-06-24T04:46:59.313Z,16.24
2023-06-24T04:49:27.260Z,16.19
2023-06-24T04:51:55.259Z,16.14
2023-06-24T04:54:23.236Z,16.11
2023-06-24T04:56:53.149Z,16.06
2023-06-24T04:59:21.206Z,16.04
2023-06-24T05:01:49.075Z,16.02
2023-06-24T05:04:16.954Z,16.02
2023-06-24T05:06:44.947Z,16.01
2023-06-24T05:09:16.093Z,16.01
2023-06-24T05:11:44.023Z,16.03
2023-06-24T05:14:12.384Z,16.06
2023-06-24T05:16:40.314Z,16.07
2023-06-24T05:19:08.274Z,16.13
2023-06-24T05:21:36.170Z,16.17
2023-06-24T05:24:04.056Z,16.21
2023-06-24T05:26:32.034Z,16.26
2023-06-24T05:28:59.920Z,16.29
2023-06-24T05:31:27.846Z,16.32
2023-06-24T05:33:55.817Z,16.35
2023-06-24T05:36:23.762Z,16.37
2023-06-24T05:38:51.681Z,16.43
2023-06-24T05:41:19.652Z,16.46
2023-06-24T05:43:47.759Z,16.52
2023-06-24T05:46:15.663Z,16.58
2023-06-24T05:48:44.609Z,16.68
2023-06-24T05:51:12.488Z,16.93
2023-06-24T05:53:40.373Z,17.09
2023-06-24T05:56:08.246Z,17.25
2023-06-24T05:58:36.108Z,17.62
2023-06-24T06:01:04.119Z,17.82
2023-06-24T06:03:32.085Z,18.04
2023-06-24T06:06:00.008Z,18.25
2023-06-24T06:08:27.945Z,18.45
2023-06-24T06:10:55.902Z,18.80
2023-06-24T06:13:23.993Z,19.00
2023-06-24T06:15:51.926Z,19.12
2023-06-24T06:18:19.798Z,19.26
2023-06-24T06:20:47.854Z,19.38
2023-06-24T06:23:15.906Z,19.39
2023-06-24T06:25:43.905Z,19.50
2023-06-24T06:28:11.902Z,19.58
2023-06-24T06:30:40.623Z,19.64
2023-06-24T06:33:08.656Z,19.70
2023-06-24T06:35:37.214Z,19.82
2023-06-24T06:38:05.247Z,19.90
2023-06-24T06:40:33.279Z,19.96
2023-06-24T06:43:01.250Z,20.07
2023-06-24T06:45:30.479Z,20.13
2023-06-24T06:48:00.441Z,20.14
2023-06-24T06:50:28.436Z,20.21
2023-06-24T06:52:56.882Z,20.24
2023-06-24T06:55:24.820Z,20.20
2023-06-24T06:57:52.711Z,20.10
2023-06-24T07:00:20.760Z,20.16
2023-06-24T07:02:48.728Z,20.19
2023-06-24T07:05:16.973Z,20.22
2023-06-24T07:07:47.725Z,20.24
2023-06-24T07:10:15.694Z,20.26
2023-06-24T07:12:43.606Z,20.26
2023-06-24T07:15:13.476Z,20.28
2023-06-24T07:17:43.350Z,20.30
2023-06-24T07:20:11.885Z,20.36
2023-06-24T07:22:39.833Z,20.39
2023-06-24T07:25:07.909Z,20.40
2023-06-24T07:27:35.958Z,20.38
2023-06-24T07:30:03.968Z,20.33
2023-06-24T07:32:31.917Z,20.27
2023-06-24T07:34:59.958Z,20.19
2023-06-24T07:37:27.890Z,20.11
2023-06-24T07:39:55.782Z,20.03
2023-06-24T07:42:23.764Z,20.00
2023-06-24T07:44:51.674Z,19.97
2023-06-24T07:47:21.254Z,19.92
2023-06-24T07:49:49.270Z,19.90
2023-06-24T07:52:17.267Z,20.01
2023-06-24T07:54:45.606Z,20.07
2023-06-24T07:57:13.616Z,20.07
2023-06-24T07:59:41.588Z,20.10
2023-06-24T08:02:09.513Z,20.19
2023-06-24T08:04:37.726Z,20.26
2023-06-24T08:07:06.979Z,20.31
2023-06-24T08:09:35.064Z,20.34
2023-06-24T08:12:03.000Z,20.38
2023-06-24T08:14:31.094Z,20.43
2023-06-24T08:16:59.084Z,20.48
2023-06-24T08:19:26.987Z,20.54
2023-06-24T08:21:55.952Z,20.60
2023-06-24T08:24:23.895Z,20.69
2023-06-24T08:26:51.797Z,20.76
2023-06-24T08:29:19.726Z,20.80
2023-06-24T08:31:47.675Z,20.88
2023-06-24T08:34:15.790Z,20.92
2023-06-24T08:36:43.765Z,20.99
2023-06-24T08:39:11.830Z,21.08
2023-06-24T08:41:40.696Z,21.16
2023-06-24T08:44:10.254Z,21.25
2023-06-24T08:46:38.541Z,21.34
2023-06-24T08:49:26.639Z,21.42
2023-06-24T08:52:13.398Z,21.52
2023-06-24T08:54:43.445Z,21.61
2023-06-24T08:57:16.906Z,21.74
2023-06-24T08:59:45.317Z,21.84
2023-06-24T09:02:13.987Z,21.94
2023-06-24T09:04:43.032Z,22.01
2023-06-24T09:07:11.006Z,22.11
2023-06-24T09:09:49.179Z,22.18
2023-06-24T09:12:17.775Z,22.25
2023-06-24T09:14:51.378Z,22.27
2023-06-24T09:17:20.473Z,22.36
2023-06-24T09:19:48.366Z,22.44
2023-06-24T09:22:20.035Z,22.50
2023-06-24T09:24:50.149Z,22.54
2023-06-24T09:27:22.516Z,22.59
2023-06-24T09:29:50.411Z,22.65
2023-06-24T09:32:18.385Z,22.64
2023-06-24T09:34:46.369Z,22.70
2023-06-24T09:37:25.301Z,22.78
2023-06-24T09:39:53.356Z,22.89
2023-06-24T09:42:24.003Z,22.97
2023-06-24T09:44:58.437Z,23.00
2023-06-24T09:47:27.510Z,23.06
2023-06-24T09:49:56.386Z,23.14
2023-06-24T09:52:24.717Z,23.21
2023-06-24T09:54:56.905Z,23.27
2023-06-24T09:57:31.183Z,23.34
2023-06-24T10:00:00.878Z,23.37
2023-06-24T10:02:33.473Z,23.31
2023-06-24T10:05:02.947Z,23.31
2023-06-24T10:07:31.294Z,23.36
2023-06-24T10:09:59.506Z,23.42
2023-06-24T10:12:29.194Z,23.49
2023-06-24T10:14:57.568Z,23.59
2023-06-24T10:17:26.142Z,23.66
2023-06-24T10:19:56.658Z,23.70
2023-06-24T10:22:28.561Z,23.75
2023-06-24T10:24:57.019Z,23.79
2023-06-24T10:27:25.498Z,23.81
2023-06-24T10:29:59.616Z,23.87
2023-06-24T10:32:27.641Z,23.90
2023-06-24T10:34:59.644Z,23.92
2023-06-24T10:37:32.760Z,23.98
2023-06-24T10:40:02.702Z,24.05
2023-06-24T10:42:37.609Z,24.13
2023-06-24T10:45:11.342Z,24.12
2023-06-24T10:47:47.037Z,24.20
2023-06-24T10:50:17.724Z,24.22
2023-06-24T10:52:50.835Z,24.29
2023-06-24T10:55:20.593Z,24.32
2023-06-24T10:57:49.051Z,24.34
2023-06-24T11:00:18.189Z,24.35
2023-06-24T11:02:47.331Z,24.39
2023-06-24T11:05:15.349Z,24.44
2023-06-24T11:07:43.374Z,24.49
2023-06-24T11:10:15.900Z,24.54
2023-06-24T11:12:45.533Z,24.50
2023-06-24T11:15:15.562Z,24.55
2023-06-24T11:17:44.032Z,24.57
2023-06-24T11:20:16.219Z,24.61
2023-06-24T11:22:45.100Z,24.65
2023-06-24T11:25:22.019Z,24.69
2023-06-24T11:27:52.479Z,24.68
2023-06-24T11:30:20.476Z,24.73
2023-06-24T11:32:50.800Z,24.78
2023-06-24T11:35:19.099Z,24.83
2023-06-24T11:37:49.205Z,24.87
2023-06-24T11:40:21.704Z,24.92
2023-06-24T11:42:53.051Z,24.99
2023-06-24T11:45:23.886Z,25.07
2023-06-24T11:47:52.018Z,25.16
2023-06-24T11:50:19.944Z,25.22
2023-06-24T11:52:51.346Z,25.31
2023-06-24T11:55:20.621Z,25.37
2023-06-24T11:57:58.757Z,25.40
2023-06-24T12:00:34.989Z,25.40
2023-06-24T12:03:06.544Z,25.44
2023-06-24T12:05:38.354Z,25.48
2023-06-24T12:08:12.346Z,25.54
2023-06-24T12:10:41.249Z,25.59
2023-06-24T12:13:10.934Z,25.64
2023-06-24T12:15:39.077Z,25.69
2023-06-24T12:18:07.807Z,25.71
2023-06-24T12:20:39.005Z,25.73
2023-06-24T12:23:07.830Z,25.79
2023-06-24T12:25:35.937Z,25.86
2023-06-24T12:28:03.877Z,25.91
2023-06-24T12:30:31.812Z,25.99
2023-06-24T12:32:59.973Z,26.05
2023-06-24T12:35:28.246Z,26.12
2023-06-24T12:37:56.323Z,26.18
2023-06-24T12:40:24.518Z,26.21
2023-06-24T12:42:53.318Z,26.26
2023-06-24T12:45:22.140Z,26.29
2023-06-24T12:47:50.167Z,26.27
2023-06-24T12:50:18.262Z,26.30
2023-06-24T12:52:46.364Z,26.36
2023-06-24T12:55:16.827Z,26.42
2023-06-24T12:57:45.274Z,26.47
2023-06-24T13:00:13.845Z,26.51
2023-06-24T13:02:41.882Z,26.54
2023-06-24T13:05:10.217Z,26.58
2023-06-24T13:07:38.128Z,26.56
2023-06-24T13:10:08.416Z,26.59
2023-06-24T13:12:37.269Z,26.55
2023-06-24T13:15:07.185Z,26.52
2023-06-24T13:17:35.200Z,26.48
2023-06-24T13:20:05.234Z,26.43
2023-06-24T13:22:33.815Z,26.43
2023-06-24T13:25:02.408Z,26.40
2023-06-24T13:27:30.623Z,26.38
2023-06-24T13:29:58.732Z,26.36
2023-06-24T13:32:26.745Z,26.39
2023-06-24T13:34:54.721Z,26.39
2023-06-24T13:37:22.944Z,26.38
2023-06-24T13:39:51.228Z,26.38
2023-06-24T13:42:19.192Z,26.38
2023-06-24T13:44:47.134Z,26.36
2023-06-24T13:47:15.567Z,26.36
2023-06-24T13:49:43.734Z,26.37
2023-06-24T13:52:11.705Z,26.34
2023-06-24T13:54:39.693Z,26.33
2023-06-24T13:57:07.775Z,26.32
2023-06-24T13:59:35.882Z,26.35
2023-06-24T14:02:04.358Z,26.31
2023-06-24T14:04:32.857Z,26.33
2023-06-24T14:07:00.892Z,26.36
2023-06-24T14:09:28.907Z,26.35
2023-06-24T14:11:57.905Z,26.36
2023-06-24T14:14:25.981Z,26.37
2023-06-24T14:16:54.060Z,26.35
2023-06-24T14:19:24.411Z,26.36
2023-06-24T14:21:53.621Z,26.35
2023-06-24T14:24:21.744Z,26.32
2023-06-24T14:26:51.437Z,26.33
2023-06-24T14:29:19.848Z,26.33
2023-06-24T14:31:47.897Z,26.36
2023-06-24T14:34:16.022Z,26.37
2023-06-24T14:36:43.951Z,26.37
2023-06-24T14:39:11.921Z,26.41
2023-06-24T14:41:39.835Z,26.44
2023-06-24T14:44:07.748Z,26.46
2023-06-24T14:46:35.803Z,26.48
2023-06-24T14:49:04.271Z,26.48
2023-06-24T14:51:32.240Z,26.55
2023-06-24T14:54:00.202Z,26.67
2023-06-24T14:56:28.225Z,26.73
2023-06-24T14:58:56.085Z,26.80
2023-06-24T15:01:24.266Z,26.88
2023-06-24T15:03:52.285Z,26.96
2023-06-24T15:06:20.190Z,27.06
2023-06-24T15:08:48.155Z,27.15
2023-06-24T15:11:16.179Z,27.15
2023-06-24T15:13:44.124Z,27.22
2023-06-24T15:16:12.041Z,27.30
2023-06-24T15:18:48.366Z,27.38
2023-06-24T15:21:34.462Z,27.49
2023-06-24T15:24:04.799Z,27.54
2023-06-24T15:26:32.937Z,27.59
2023-06-24T15:29:00.907Z,27.65
2023-06-24T15:31:29.108Z,27.70
2023-06-24T15:33:57.078Z,27.74
2023-06-24T15:36:28.937Z,27.76
2023-06-24T15:38:57.497Z,27.72
2023-06-24T15:41:25.697Z,27.74
2023-06-24T15:43:53.699Z,27.74
2023-06-24T15:46:22.019Z,27.66
2023-06-24T15:48:50.144Z,27.67
2023-06-24T15:51:18.066Z,27.72
2023-06-24T15:53:46.008Z,27.74
2023-06-24T15:56:14.020Z,27.83
2023-06-24T15:58:42.543Z,27.84
2023-06-24T16:01:10.615Z,27.90
2023-06-24T16:03:39.796Z,27.92
2023-06-24T16:06:07.974Z,27.85
2023-06-24T16:08:35.988Z,27.84
2023-06-24T16:11:03.957Z,27.81
2023-06-24T16:13:33.075Z,27.83
2023-06-24T16:16:01.249Z,27.86
2023-06-24T16:18:29.151Z,27.86
2023-06-24T16:20:57.060Z,27.84
2023-06-24T16:23:25.008Z,27.89
2023-06-24T16:25:53.330Z,27.89
2023-06-24T16:28:21.277Z,27.90
2023-06-24T16:30:49.843Z,27.98
2023-06-24T16:33:17.825Z,27.98
2023-06-24T16:35:45.749Z,27.91
2023-06-24T16:38:13.711Z,27.92
2023-06-24T16:40:41.671Z,27.95
2023-06-24T16:43:09.940Z,27.95
2023-06-24T16:45:37.972Z,27.97
2023-06-24T16:48:06.410Z,27.99
2023-06-24T16:50:36.595Z,28.08
2023-06-24T16:53:04.843Z,28.11
2023-06-24T16:55:32.768Z,28.15
2023-06-24T16:58:00.872Z,28.18
2023-06-24T17:00:28.947Z,28.21
2023-06-24T17:02:57.021Z,28.22
2023-06-24T17:05:25.104Z,28.20
2023-06-24T17:07:53.070Z,28.21
2023-06-24T17:10:21.150Z,28.25
2023-06-24T17:12:49.083Z,28.28
2023-06-24T17:15:17.105Z,28.28
2023-06-24T17:17:45.165Z,28.30
2023-06-24T17:20:13.135Z,28.35
2023-06-24T17:22:41.153Z,28.36
2023-06-24T17:25:09.450Z,28.33
2023-06-24T17:27:37.437Z,28.26
2023-06-24T17:30:05.893Z,28.21
2023-06-24T17:32:33.904Z,28.20
2023-06-24T17:35:01.924Z,28.15
2023-06-24T17:37:29.866Z,28.18
2023-06-24T17:39:57.769Z,28.13
2023-06-24T17:42:25.750Z,28.08
2023-06-24T17:44:53.831Z,28.07
2023-06-24T17:47:21.850Z,28.01
2023-06-24T17:49:49.966Z,27.93
2023-06-24T17:52:17.865Z,27.82
2023-06-24T17:54:45.788Z,27.74
2023-06-24T17:57:13.725Z,27.57
2023-06-24T17:59:41.668Z,27.38
2023-06-24T18:02:09.794Z,27.25
2023-06-24T18:04:37.815Z,27.10
2023-06-24T18:07:06.150Z,26.96
2023-06-24T18:09:34.091Z,26.84
2023-06-24T18:12:02.113Z,26.70
2023-06-24T18:14:30.040Z,26.57
2023-06-24T18:16:57.982Z,26.47
2023-06-24T18:19:25.946Z,26.36
2023-06-24T18:21:53.984Z,26.21
2023-06-24T18:24:22.070Z,26.06
2023-06-24T18:26:50.052Z,25.93
2023-06-24T18:29:18.016Z,25.87
2023-06-24T18:31:46.083Z,25.76
2023-06-24T18:34:14.037Z,25.68
2023-06-24T18:36:41.934Z,25.58
2023-06-24T18:39:09.878Z,25.50
2023-06-24T18:41:37.844Z,25.43
2023-06-24T18:44:07.234Z,25.35
2023-06-24T18:46:35.259Z,25.27
2023-06-24T18:49:03.203Z,25.20
2023-06-24T18:51:31.104Z,25.12
2023-06-24T18:53:59.039Z,25.07
2023-06-24T18:56:27.047Z,25.01
2023-06-24T18:58:55.084Z,24.91
2023-06-24T19:01:23.100Z,24.84
2023-06-24T19:03:51.097Z,24.76
2023-06-24T19:06:19.044Z,24.70
2023-06-24T19:08:49.543Z,24.64
2023-06-24T19:11:17.523Z,24.58
2023-06-24T19:13:45.506Z,24.52
2023-06-24T19:16:13.423Z,24.45
2023-06-24T19:18:41.312Z,24.39
2023-06-24T19:21:09.234Z,24.31
2023-06-24T19:23:37.161Z,24.26
2023-06-24T19:26:05.201Z,24.19
2023-06-24T19:28:33.126Z,24.14
2023-06-24T19:31:01.243Z,24.08
2023-06-24T19:33:29.334Z,24.01
2023-06-24T19:35:57.794Z,23.94
2023-06-24T19:38:25.796Z,23.90
2023-06-24T19:40:53.710Z,23.84
2023-06-24T19:43:23.901Z,23.80
2023-06-24T19:45:53.028Z,23.75
2023-06-24T19:48:24.480Z,23.69
2023-06-24T19:50:52.709Z,23.63
2023-06-24T19:53:20.630Z,23.58
2023-06-24T19:55:48.663Z,23.51
2023-06-24T19:58:16.629Z,23.46
2023-06-24T20:00:44.778Z,23.41
2023-06-24T20:03:12.884Z,23.34
2023-06-24T20:05:40.841Z,23.29
2023-06-24T20:08:08.847Z,23.24
2023-06-24T20:10:37.182Z,23.19
2023-06-24T20:13:05.350Z,23.13
2023-06-24T20:15:33.251Z,23.08
2023-06-24T20:18:01.239Z,23.03
2023-06-24T20:20:29.259Z,22.97
2023-06-24T20:22:57.286Z,22.91
2023-06-24T20:25:25.213Z,22.86
2023-06-24T20:27:53.160Z,22.82
2023-06-24T20:30:21.031Z,22.79
2023-06-24T20:32:49.020Z,22.75
2023-06-24T20:35:18.431Z,22.71
2023-06-24T20:37:46.295Z,22.67
2023-06-24T20:40:14.484Z,22.63
2023-06-24T20:42:42.489Z,22.59
2023-06-24T20:45:11.985Z,22.55
2023-06-24T20:47:40.165Z,22.50
2023-06-24T20:50:08.798Z,22.48
2023-06-24T20:52:38.035Z,22.44
2023-06-24T20:55:06.946Z,22.40
2023-06-24T20:57:35.188Z,22.34
2023-06-24T21:00:03.189Z,22.30
2023-06-24T21:02:33.804Z,22.26
2023-06-24T21:05:02.860Z,22.22
2023-06-24T21:07:30.905Z,22.16
2023-06-24T21:09:58.963Z,22.13
2023-06-24T21:12:26.998Z,22.09
2023-06-24T21:14:54.943Z,22.05
2023-06-24T21:17:23.026Z,21.99
2023-06-24T21:19:51.002Z,21.94
2023-06-24T21:22:19.109Z,21.89
2023-06-24T21:24:47.820Z,21.85
2023-06-24T21:27:16.258Z,21.80
2023-06-24T21:29:44.216Z,21.75
2023-06-24T21:32:12.601Z,21.72
2023-06-24T21:34:40.529Z,21.69
2023-06-24T21:37:08.461Z,21.64
2023-06-24T21:39:36.416Z,21.59
2023-06-24T21:42:04.540Z,21.55
2023-06-24T21:44:33.976Z,21.52
2023-06-24T21:47:02.005Z,21.48
2023-06-24T21:49:30.114Z,21.45
2023-06-24T21:52:00.094Z,21.40
2023-06-24T21:54:28.034Z,21.36
2023-06-24T21:56:56.581Z,21.31
2023-06-24T21:59:24.563Z,21.27
2023-06-24T22:01:52.569Z,21.22
2023-06-24T22:04:20.489Z,21.19
2023-06-24T22:06:48.465Z,21.15
2023-06-24T22:09:18.056Z,21.12
2023-06-24T22:11:46.054Z,21.09
2023-06-24T22:14:14.025Z,21.02
2023-06-24T22:16:44.161Z,21.00
2023-06-24T22:19:12.198Z,20.96
2023-06-24T22:21:40.112Z,20.93
2023-06-24T22:24:08.205Z,20.90
2023-06-24T22:26:36.334Z,20.87
2023-06-24T22:29:04.418Z,20.84
2023-06-24T22:31:32.454Z,20.82
2023-06-24T22:34:01.572Z,20.77
2023-06-24T22:36:29.449Z,20.74
2023-06-24T22:38:57.487Z,20.71
2023-06-24T22:41:25.687Z,20.68
2023-06-24T22:43:53.718Z,20.64
2023-06-24T22:46:21.663Z,20.59
2023-06-24T22:48:49.776Z,20.54
2023-06-24T22:51:17.768Z,20.47
2023-06-24T22:53:47.613Z,20.42
2023-06-24T22:56:15.664Z,20.38
2023-06-24T22:58:43.609Z,20.33
2023-06-24T23:01:11.656Z,20.28
2023-06-24T23:03:40.084Z,20.24
2023-06-24T23:06:08.655Z,20.19
2023-06-24T23:08:36.810Z,20.15
2023-06-24T23:11:05.019Z,20.26
2023-06-24T23:13:34.749Z,20.31
2023-06-24T23:16:04.022Z,20.30
2023-06-24T23:18:32.687Z,20.39
2023-06-24T23:21:01.086Z,20.35
2023-06-24T23:23:29.340Z,20.43
2023-06-24T23:25:57.729Z,20.46
2023-06-24T23:28:29.993Z,20.58
2023-06-24T23:30:58.599Z,20.77
2023-06-24T23:33:26.785Z,20.89
2023-06-24T23:35:54.965Z,20.97
2023-06-24T23:38:24.120Z,21.00
2023-06-24T23:40:52.416Z,20.92
2023-06-24T23:43:22.784Z,20.82
2023-06-24T23:45:52.720Z,20.68
2023-06-24T23:48:21.035Z,20.49
2023-06-24T23:50:50.092Z,20.33
2023-06-24T23:53:18.046Z,20.09
2023-06-24T23:55:45.993Z,19.93
2023-06-24T23:58:13.972Z,19.75
